This is the latest recevied weather packets stored in our database for station/object DH4SBM. If no packets are shown the sender has not sent any weather packets the latest 1 day(s).
| Time | Temp. | Humidity | Pressure | Rain* | Wind** | Luminosity | Snow |
|---|---|---|---|---|---|---|---|
| 1778079346 | 12.78° C | 87% | 1007.6 hPa | 0 mm | - | 118 W/m² | - |
| 1778078746 | 12.78° C | 86% | 1007.5 hPa | 0 mm | - | 95 W/m² | - |
| 1778078146 | 13.33° C | 85% | 1007.6 hPa | 0 mm | - | 104 W/m² | - |
| 1778077544 | 13.33° C | 82% | 1007.6 hPa | 0 mm | - | 79 W/m² | - |
| 1778076944 | 14.44° C | 78% | 1007.5 hPa | 0 mm | - | 109 W/m² | - |
| 1778076344 | 16.67° C | 76% | 1007.1 hPa | 0 mm | - | 216 W/m² | - |
| 1778075744 | 16.67° C | 71% | 1007 hPa | 0 mm | - | 146 W/m² | - |
| 1778075144 | 16.67° C | 71% | 1006.9 hPa | 0 mm | - | 102 W/m² | - |
| 1778074544 | 17.22° C | 69% | 1006.8 hPa | 0 mm | - | 125 W/m² | - |
| 1778073944 | 17.22° C | 70% | 1006.8 hPa | 0 mm | - | 142 W/m² | - |
| 1778073344 | 17.78° C | 67% | 1006.7 hPa | 0 mm | - | 148 W/m² | - |
| 1778072744 | 17.78° C | 65% | 1006.6 hPa | 0 mm | - | 127 W/m² | - |
| 1778072144 | 17.78° C | 65% | 1006.5 hPa | 0 mm | - | 116 W/m² | - |
| 1778071544 | 18.33° C | 64% | 1006.5 hPa | 0 mm | - | 139 W/m² | - |
| 1778066256 | 18.89° C | 66% | 1006.8 hPa | 0 mm | - | 392 W/m² | - |
| 1778058940 | 17.78° C | 65% | 1007.5 hPa | 0 mm | - | 728 W/m² | - |
| 1778058340 | 17.22° C | 64% | 1007.5 hPa | 0 mm | - | 663 W/m² | - |
| 1778057740 | 17.22° C | 69% | 1007.5 hPa | 0 mm | - | 548 W/m² | - |
| 1778057140 | 17.22° C | 69% | 1007.6 hPa | 0 mm | - | 598 W/m² | - |
| 1778056540 | 16.67° C | 70% | 1007.7 hPa | 0 mm | - | 747 W/m² | - |
| 1778055940 | 16.67° C | 71% | 1007.7 hPa | 0 mm | - | 619 W/m² | - |
| 1778055338 | 16.67° C | 72% | 1007.7 hPa | 0 mm | - | 538 W/m² | - |
| 1778054738 | 16.67° C | 73% | 1007.8 hPa | 0 mm | - | 677 W/m² | - |
| 1778054138 | 16.11° C | 76% | 1007.8 hPa | 0 mm | - | 617 W/m² | - |
| 1778053538 | 15° C | 80% | 1007.9 hPa | 0 mm | - | 608 W/m² | - |
* Rain latest hour (hover to see other rain measurements)
** Current wind speed in m/s (hover to see current wind gust speed)